createdAt,value
2018-09-12T00:01:23.167Z,17.80
2018-09-12T00:03:49.849Z,17.90
2018-09-12T00:06:16.563Z,17.70
2018-09-12T00:08:49.793Z,17.80
2018-09-12T00:11:16.582Z,17.90
2018-09-12T00:13:44.089Z,18.00
2018-09-12T00:16:10.976Z,18.10
2018-09-12T00:18:38.966Z,18.10
2018-09-12T00:21:06.014Z,17.90
2018-09-12T00:23:33.783Z,17.80
2018-09-12T00:28:33.039Z,18.10
2018-09-12T00:30:59.976Z,18.30
2018-09-12T00:33:27.908Z,18.10
2018-09-12T00:40:59.727Z,18.30
2018-09-12T00:43:26.877Z,18.50
2018-09-12T00:45:53.619Z,18.00
2018-09-12T00:48:21.063Z,18.10
2018-09-12T00:50:49.032Z,18.30
2018-09-12T00:53:17.436Z,18.30
2018-09-12T00:55:48.095Z,18.30
2018-09-12T00:58:16.573Z,18.20
2018-09-12T01:00:44.404Z,18.00
2018-09-12T01:05:43.180Z,17.70
2018-09-12T01:08:11.987Z,17.70
2018-09-12T01:10:38.858Z,17.40
2018-09-12T01:13:08.964Z,17.50
2018-09-12T01:15:38.108Z,17.60
2018-09-12T01:18:07.162Z,17.40
2018-09-12T01:23:06.997Z,17.10
2018-09-12T01:25:33.968Z,17.10
2018-09-12T01:28:02.582Z,17.10
2018-09-12T01:30:31.064Z,17.10
2018-09-12T01:32:57.619Z,17.50
2018-09-12T01:35:25.286Z,17.80
2018-09-12T01:37:58.824Z,17.70
2018-09-12T01:40:26.994Z,17.20
2018-09-12T01:42:54.236Z,17.30
2018-09-12T01:45:22.027Z,17.50
2018-09-12T01:47:50.355Z,17.50
2018-09-12T01:50:17.919Z,17.20
2018-09-12T01:52:47.032Z,17.50
2018-09-12T01:55:13.768Z,17.30
2018-09-12T01:57:40.771Z,17.30
2018-09-12T02:00:08.640Z,17.20
2018-09-12T02:02:37.771Z,17.00
2018-09-12T02:05:06.658Z,17.00
2018-09-12T02:07:34.351Z,17.00
2018-09-12T02:10:02.800Z,16.90
2018-09-12T02:12:30.277Z,17.00
2018-09-12T02:14:57.599Z,17.00
2018-09-12T02:17:26.745Z,17.20
2018-09-12T02:19:54.252Z,17.10
2018-09-12T02:24:53.517Z,16.80
2018-09-12T02:27:21.235Z,17.00
2018-09-12T02:29:49.616Z,17.20
2018-09-12T02:32:18.709Z,16.80
2018-09-12T02:34:46.551Z,17.20
2018-09-12T02:37:15.521Z,16.80
2018-09-12T02:39:44.210Z,17.00
2018-09-12T02:42:11.635Z,17.20
2018-09-12T02:44:39.582Z,17.20
2018-09-12T02:47:09.147Z,17.10
2018-09-12T02:49:37.138Z,16.70
2018-09-12T02:52:04.851Z,16.90
2018-09-12T02:54:34.121Z,16.60
2018-09-12T02:57:01.646Z,16.90
2018-09-12T02:59:28.891Z,16.60
2018-09-12T03:01:56.964Z,16.40
2018-09-12T03:09:27.994Z,16.40
2018-09-12T03:11:55.710Z,16.30
2018-09-12T03:14:25.536Z,16.30
2018-09-12T03:21:56.275Z,16.10
2018-09-12T03:24:23.213Z,16.20
2018-09-12T03:26:51.280Z,16.00
2018-09-12T03:29:18.849Z,15.90
2018-09-12T03:31:46.498Z,16.30
2018-09-12T03:34:13.457Z,16.10
2018-09-12T03:36:40.457Z,16.00
2018-09-12T03:39:08.224Z,16.00
2018-09-12T03:41:37.780Z,16.00
2018-09-12T03:46:37.354Z,16.00
2018-09-12T03:49:05.038Z,15.90
2018-09-12T03:51:32.732Z,16.00
2018-09-12T03:53:59.745Z,16.10
2018-09-12T03:56:26.642Z,16.00
2018-09-12T03:58:53.857Z,16.00
2018-09-12T04:04:00.117Z,15.90
2018-09-12T04:06:30.263Z,16.00
2018-09-12T04:08:56.812Z,16.20
2018-09-12T04:11:24.956Z,15.90
2018-09-12T04:13:54.183Z,16.00
2018-09-12T04:16:23.265Z,15.90
2018-09-12T04:18:52.378Z,16.10
2018-09-12T04:21:19.066Z,16.20
2018-09-12T04:23:47.369Z,16.20
2018-09-12T04:26:16.314Z,16.30
2018-09-12T04:28:43.544Z,16.40
2018-09-12T04:31:10.492Z,16.20
2018-09-12T04:33:39.637Z,16.10
2018-09-12T04:38:39.168Z,16.20
2018-09-12T04:41:05.781Z,16.00
2018-09-12T04:43:32.523Z,16.20
2018-09-12T04:48:31.168Z,16.00
2018-09-12T04:50:58.590Z,16.10
2018-09-12T04:53:25.786Z,16.40
2018-09-12T04:55:53.230Z,16.20
2018-09-12T04:58:20.226Z,16.10
2018-09-12T05:00:47.759Z,16.40
2018-09-12T05:03:14.902Z,16.50
2018-09-12T05:05:41.464Z,16.10
2018-09-12T05:08:07.976Z,16.40
2018-09-12T05:10:34.993Z,16.60
2018-09-12T05:13:01.636Z,16.60
2018-09-12T05:15:29.164Z,16.20
2018-09-12T05:17:55.859Z,16.60
2018-09-12T05:20:22.511Z,16.90
2018-09-12T05:22:49.505Z,17.00
2018-09-12T05:25:16.631Z,17.10
2018-09-12T05:27:44.933Z,17.10
2018-09-12T05:30:11.687Z,17.10
2018-09-12T05:32:39.999Z,17.40
2018-09-12T05:35:07.969Z,17.60
2018-09-12T05:37:34.651Z,17.30
2018-09-12T05:40:01.662Z,17.30
2018-09-12T05:42:28.439Z,17.70
2018-09-12T05:44:55.113Z,17.40
2018-09-12T05:47:23.100Z,17.70
2018-09-12T05:49:49.689Z,17.90
2018-09-12T05:52:17.105Z,18.30
2018-09-12T05:54:46.071Z,18.30
2018-09-12T05:57:12.875Z,18.40
2018-09-12T05:59:39.547Z,18.30
2018-09-12T06:02:06.317Z,18.70
2018-09-12T06:04:33.523Z,19.10
2018-09-12T06:07:01.243Z,19.20
2018-09-12T06:09:29.560Z,19.40
2018-09-12T06:11:56.304Z,19.50
2018-09-12T06:14:22.885Z,19.60
2018-09-12T06:16:49.540Z,19.70
2018-09-12T06:19:16.752Z,19.90
2018-09-12T06:21:43.323Z,20.20
2018-09-12T06:24:12.979Z,20.20
2018-09-12T06:26:39.880Z,20.30
2018-09-12T06:29:06.558Z,20.20
2018-09-12T06:31:36.412Z,20.20
2018-09-12T06:34:02.954Z,20.40
2018-09-12T06:36:35.573Z,20.70
2018-09-12T06:41:35.727Z,21.00
2018-09-12T06:44:02.395Z,21.10
2018-09-12T06:46:31.723Z,21.00
2018-09-12T06:51:30.098Z,21.20
2018-09-12T06:53:57.524Z,21.10
2018-09-12T06:56:24.192Z,21.10
2018-09-12T06:58:51.312Z,21.00
2018-09-12T07:01:17.935Z,21.10
2018-09-12T07:03:45.740Z,21.30
2018-09-12T07:06:12.356Z,21.20
2018-09-12T07:08:40.006Z,21.00
2018-09-12T07:11:11.156Z,21.00
2018-09-12T07:13:39.715Z,21.30
2018-09-12T07:16:07.968Z,21.30
2018-09-12T07:18:35.675Z,21.60
2018-09-12T07:23:34.554Z,21.60
2018-09-12T07:26:01.530Z,22.00
2018-09-12T07:28:28.860Z,21.90
2018-09-12T07:30:55.709Z,21.90
2018-09-12T07:33:22.342Z,21.70
2018-09-12T07:40:53.307Z,21.90
2018-09-12T07:43:20.351Z,22.00
2018-09-12T07:45:47.011Z,21.80
2018-09-12T07:50:46.892Z,22.30
2018-09-12T07:53:16.435Z,22.20
2018-09-12T07:55:44.088Z,22.40
2018-09-12T07:58:11.549Z,22.30
2018-09-12T08:00:39.816Z,22.50
2018-09-12T08:03:06.666Z,22.30
2018-09-12T08:05:33.433Z,22.40
2018-09-12T08:08:00.096Z,22.60
2018-09-12T08:10:26.716Z,22.70
2018-09-12T08:12:53.766Z,22.80
2018-09-12T08:15:21.647Z,23.30
2018-09-12T08:17:49.503Z,23.70
2018-09-12T08:20:16.097Z,23.70
2018-09-12T08:22:42.741Z,23.90
2018-09-12T08:25:12.465Z,23.80
2018-09-12T08:27:48.420Z,23.80
2018-09-12T08:30:15.085Z,24.20
2018-09-12T08:32:46.422Z,24.20
2018-09-12T08:35:16.953Z,24.20
2018-09-12T08:37:43.450Z,24.30
2018-09-12T08:42:45.583Z,24.40
2018-09-12T08:45:16.814Z,24.50
2018-09-12T08:47:49.785Z,24.50
2018-09-12T08:50:21.691Z,24.60
2018-09-12T08:52:48.510Z,24.40
2018-09-12T08:55:21.297Z,24.20
2018-09-12T08:57:57.571Z,24.30
2018-09-12T09:00:25.089Z,24.90
2018-09-12T09:02:58.040Z,25.20
2018-09-12T09:05:24.703Z,25.70
2018-09-12T09:07:52.126Z,25.80
2018-09-12T09:12:52.015Z,26.00
2018-09-12T09:15:18.660Z,25.80
2018-09-12T09:17:46.108Z,25.90
2018-09-12T09:20:12.773Z,26.20
2018-09-12T09:22:40.044Z,26.60
2018-09-12T09:25:09.935Z,26.40
2018-09-12T09:27:36.673Z,26.60
2018-09-12T09:30:03.325Z,26.80
2018-09-12T09:32:37.112Z,26.90
2018-09-12T09:35:05.438Z,27.10
2018-09-12T09:37:33.047Z,27.40
2018-09-12T09:40:04.925Z,27.50
2018-09-12T09:42:34.929Z,27.80
2018-09-12T09:45:03.953Z,27.70
2018-09-12T09:50:07.530Z,28.10
2018-09-12T09:52:34.940Z,28.40
2018-09-12T09:55:01.638Z,28.00
2018-09-12T09:57:29.118Z,27.70
2018-09-12T10:00:03.169Z,28.30
2018-09-12T10:05:12.878Z,28.60
2018-09-12T10:07:45.519Z,28.70
2018-09-12T10:10:12.005Z,28.70
2018-09-12T10:12:45.584Z,28.90
2018-09-12T10:17:50.450Z,28.50
2018-09-12T10:20:21.266Z,28.80
2018-09-12T10:22:47.831Z,29.00
2018-09-12T10:25:21.401Z,29.10
2018-09-12T10:27:48.307Z,29.50
2018-09-12T10:30:17.441Z,29.70
2018-09-12T10:32:47.055Z,29.50
2018-09-12T10:35:22.618Z,30.00
2018-09-12T10:37:56.896Z,29.90
2018-09-12T10:40:23.584Z,29.90
2018-09-12T10:42:51.536Z,30.10
2018-09-12T10:45:18.918Z,30.40
2018-09-12T10:47:46.135Z,29.60
2018-09-12T10:50:21.777Z,29.50
2018-09-12T10:52:48.417Z,29.30
2018-09-12T10:55:22.175Z,29.60
2018-09-12T10:57:48.943Z,30.10
2018-09-12T11:00:15.532Z,30.50
2018-09-12T11:02:49.879Z,30.50
2018-09-12T11:05:16.576Z,30.40
2018-09-12T11:07:53.104Z,30.40
2018-09-12T11:10:24.206Z,30.20
2018-09-12T11:12:51.826Z,30.60
2018-09-12T11:15:18.355Z,30.40
2018-09-12T11:17:45.141Z,30.50
2018-09-12T11:20:12.385Z,30.70
2018-09-12T11:22:43.977Z,30.80
2018-09-12T11:25:20.021Z,30.70
2018-09-12T11:27:48.082Z,30.80
2018-09-12T11:30:14.715Z,30.70
2018-09-12T11:35:19.207Z,31.00
2018-09-12T11:37:46.446Z,31.10
2018-09-12T11:45:49.113Z,31.50
2018-09-12T11:51:00.599Z,31.60
2018-09-12T11:53:31.869Z,31.20
2018-09-12T11:56:02.416Z,31.00
2018-09-12T11:58:39.054Z,31.30
2018-09-12T12:01:13.994Z,31.10
2018-09-12T12:03:40.664Z,31.20
2018-09-12T12:06:10.395Z,30.70
2018-09-12T12:08:47.318Z,31.00
2018-09-12T12:11:14.029Z,31.10
2018-09-12T12:13:42.567Z,31.20
2018-09-12T12:16:13.882Z,31.30
2018-09-12T12:18:41.825Z,31.30
2018-09-12T12:21:08.837Z,31.50
2018-09-12T12:23:35.585Z,31.40
2018-09-12T12:26:03.320Z,31.40
2018-09-12T12:28:30.619Z,31.70
2018-09-12T12:30:57.214Z,31.10
2018-09-12T12:35:56.224Z,31.30
2018-09-12T12:41:08.422Z,31.70
2018-09-12T12:43:34.923Z,32.00
2018-09-12T12:46:01.774Z,32.00
2018-09-12T12:48:28.297Z,32.10
2018-09-12T12:56:12.124Z,32.00
2018-09-12T13:01:10.253Z,32.00
2018-09-12T13:03:45.635Z,31.70
2018-09-12T13:06:12.296Z,31.10
2018-09-12T13:08:38.756Z,31.20
2018-09-12T13:11:05.212Z,32.00
2018-09-12T13:13:31.822Z,32.40
2018-09-12T13:16:02.944Z,32.70
2018-09-12T13:18:30.414Z,32.80
2018-09-12T13:21:03.532Z,32.10
2018-09-12T13:23:30.101Z,32.10
2018-09-12T13:26:01.366Z,32.20
2018-09-12T13:31:10.305Z,32.20
2018-09-12T13:33:37.095Z,32.20
2018-09-12T13:36:03.543Z,31.80
2018-09-12T13:43:57.253Z,32.00
2018-09-12T13:46:23.753Z,32.20
2018-09-12T13:48:57.909Z,32.20
2018-09-12T13:51:24.436Z,32.20
2018-09-12T13:54:00.316Z,31.80
2018-09-12T14:09:25.862Z,31.50
2018-09-12T14:11:57.678Z,31.80
2018-09-12T14:14:25.426Z,32.10
2018-09-12T14:19:34.868Z,31.80
2018-09-12T14:22:10.537Z,32.00
2018-09-12T14:24:38.830Z,32.10
2018-09-12T14:27:05.391Z,31.80
2018-09-12T14:29:32.010Z,32.00
2018-09-12T14:31:58.708Z,32.20
2018-09-12T14:34:26.165Z,32.20
2018-09-12T14:36:52.687Z,32.20
2018-09-12T14:41:52.749Z,32.20
2018-09-12T14:44:24.791Z,31.80
2018-09-12T14:46:51.395Z,31.60
2018-09-12T14:49:18.830Z,31.20
2018-09-12T14:51:46.963Z,31.30
2018-09-12T14:56:50.384Z,31.60
2018-09-12T14:59:17.707Z,31.70
2018-09-12T15:01:44.414Z,31.40
2018-09-12T15:07:03.904Z,31.40
2018-09-12T15:12:10.926Z,31.50
2018-09-12T15:19:54.042Z,32.20
2018-09-12T15:22:20.672Z,31.70
2018-09-12T15:27:19.018Z,31.30
2018-09-12T15:29:46.913Z,31.30
2018-09-12T15:32:13.520Z,31.70
2018-09-12T15:34:40.248Z,31.80
2018-09-12T15:37:07.004Z,31.60
2018-09-12T15:39:34.614Z,30.90
2018-09-12T15:42:01.780Z,31.20
2018-09-12T15:44:29.334Z,30.90
2018-09-12T15:46:55.999Z,30.80
2018-09-12T15:52:06.152Z,31.10
2018-09-12T15:57:45.177Z,31.30
2018-09-12T16:02:44.667Z,30.80
2018-09-12T16:05:13.079Z,30.30
2018-09-12T16:07:39.681Z,30.40
2018-09-12T16:12:38.986Z,30.90
2018-09-12T16:15:06.504Z,30.30
2018-09-12T16:17:33.419Z,30.30
2018-09-12T16:20:00.126Z,30.40
2018-09-12T16:24:58.974Z,30.10
2018-09-12T16:27:25.773Z,29.80
2018-09-12T16:29:54.274Z,29.40
2018-09-12T16:32:20.893Z,29.10
2018-09-12T16:37:19.095Z,28.60
2018-09-12T16:39:45.583Z,28.60
2018-09-12T16:42:12.170Z,28.70
2018-09-12T16:52:35.446Z,28.50
2018-09-12T16:55:02.071Z,28.30
2018-09-12T16:57:28.554Z,28.00
2018-09-12T17:00:02.662Z,27.80
2018-09-12T17:02:29.445Z,27.80
2018-09-12T17:04:59.479Z,27.60
2018-09-12T17:07:28.914Z,27.60
2018-09-12T17:09:55.572Z,27.50
2018-09-12T17:12:22.887Z,27.30
2018-09-12T17:17:27.519Z,26.80
2018-09-12T17:19:54.209Z,26.70
2018-09-12T17:22:26.068Z,26.40
2018-09-12T17:24:57.204Z,26.20
2018-09-12T17:29:59.947Z,26.30
2018-09-12T17:32:27.364Z,26.10
2018-09-12T17:34:59.944Z,26.10
2018-09-12T17:37:27.356Z,26.10
2018-09-12T17:39:54.184Z,25.80
2018-09-12T17:42:22.700Z,25.60
2018-09-12T17:44:51.815Z,25.70
2018-09-12T17:47:18.402Z,25.30
2018-09-12T17:49:45.037Z,25.30
2018-09-12T17:52:12.197Z,25.40
2018-09-12T17:54:38.883Z,25.30
2018-09-12T17:57:07.784Z,24.80
2018-09-12T17:59:39.507Z,25.00
2018-09-12T18:02:11.410Z,25.00
2018-09-12T18:04:41.803Z,24.80
2018-09-12T18:07:11.464Z,24.80
2018-09-12T18:09:42.128Z,24.50
2018-09-12T18:12:08.783Z,24.60
2018-09-12T18:14:36.647Z,24.20
2018-09-12T18:17:08.477Z,24.20
2018-09-12T18:19:40.398Z,24.30
2018-09-12T18:22:11.350Z,24.40
2018-09-12T18:27:11.099Z,24.10
2018-09-12T18:29:38.410Z,24.10
2018-09-12T18:37:13.756Z,23.80
2018-09-12T18:39:40.619Z,23.60
2018-09-12T18:42:07.376Z,23.50
2018-09-12T18:44:35.595Z,23.30
2018-09-12T18:47:04.911Z,23.20
2018-09-12T18:49:36.154Z,23.00
2018-09-12T18:52:02.735Z,23.10
2018-09-12T18:54:30.194Z,23.50
2018-09-12T18:56:56.791Z,23.20
2018-09-12T19:01:59.913Z,23.40
2018-09-12T19:04:28.932Z,23.30
2018-09-12T19:06:56.531Z,23.20
2018-09-12T19:09:23.262Z,23.20
2018-09-12T19:11:50.286Z,23.20
2018-09-12T19:14:21.424Z,23.00
2018-09-12T19:16:49.236Z,23.00
2018-09-12T19:19:20.646Z,22.90
2018-09-12T19:21:47.586Z,22.90
2018-09-12T19:26:52.960Z,22.30
2018-09-12T19:29:22.385Z,22.40
2018-09-12T19:31:52.388Z,22.40
2018-09-12T19:34:20.710Z,22.30
2018-09-12T19:36:48.409Z,22.30
2018-09-12T19:39:15.969Z,22.50
2018-09-12T19:41:45.054Z,22.50
2018-09-12T19:44:11.703Z,22.60
2018-09-12T19:46:39.291Z,22.70
2018-09-12T19:49:08.244Z,22.50
2018-09-12T19:51:34.958Z,22.50
2018-09-12T19:54:03.892Z,22.60
2018-09-12T19:56:30.679Z,22.20
2018-09-12T19:58:57.304Z,22.10
2018-09-12T20:01:24.332Z,22.20
2018-09-12T20:03:51.795Z,22.00
2018-09-12T20:06:19.967Z,21.90
2018-09-12T20:08:47.159Z,22.00
2018-09-12T20:13:49.362Z,22.20
2018-09-12T20:16:15.947Z,22.00
2018-09-12T20:18:43.298Z,21.70
2018-09-12T20:21:11.113Z,21.70
2018-09-12T20:23:37.883Z,21.70
2018-09-12T20:26:07.497Z,21.80
2018-09-12T20:28:34.103Z,21.90
2018-09-12T20:31:02.176Z,21.90
2018-09-12T20:33:28.775Z,21.90
2018-09-12T20:38:28.450Z,21.60
2018-09-12T20:40:56.633Z,21.60
2018-09-12T20:43:23.272Z,21.40
2018-09-12T20:48:25.854Z,21.60
2018-09-12T20:50:52.583Z,21.60
2018-09-12T20:53:20.886Z,21.60
2018-09-12T20:55:50.420Z,21.60
2018-09-12T20:58:18.121Z,21.60
2018-09-12T21:00:45.423Z,21.60
2018-09-12T21:03:14.869Z,21.10
2018-09-12T21:05:42.194Z,21.10
2018-09-12T21:08:09.716Z,21.20
2018-09-12T21:10:40.245Z,21.50
2018-09-12T21:15:39.464Z,21.30
2018-09-12T21:18:07.083Z,21.40
2018-09-12T21:20:39.980Z,21.50
2018-09-12T21:23:07.426Z,21.40
2018-09-12T21:25:35.021Z,21.30
2018-09-12T21:28:03.603Z,21.20
2018-09-12T21:30:31.186Z,21.10
2018-09-12T21:33:01.471Z,21.20
2018-09-12T21:35:29.632Z,21.10
2018-09-12T21:37:57.022Z,21.10
2018-09-12T21:40:25.948Z,21.00
2018-09-12T21:42:54.351Z,20.90
2018-09-12T21:45:21.115Z,20.90
2018-09-12T21:47:50.220Z,20.80
2018-09-12T21:50:16.885Z,20.80
2018-09-12T21:52:43.433Z,20.70
2018-09-12T21:55:13.436Z,20.60
2018-09-12T21:57:39.993Z,20.70
2018-09-12T22:00:11.487Z,20.70
2018-09-12T22:02:41.758Z,20.60
2018-09-12T22:07:41.852Z,20.40
2018-09-12T22:10:08.744Z,20.40
2018-09-12T22:12:35.490Z,20.30
2018-09-12T22:15:02.059Z,20.50
2018-09-12T22:17:30.640Z,20.70
2018-09-12T22:19:57.511Z,20.60
2018-09-12T22:22:24.527Z,20.70
2018-09-12T22:24:51.934Z,20.50
2018-09-12T22:27:18.769Z,20.40
2018-09-12T22:29:45.428Z,20.30
2018-09-12T22:32:12.757Z,20.50
2018-09-12T22:34:41.225Z,20.10
2018-09-12T22:37:08.360Z,20.00
2018-09-12T22:39:36.286Z,20.20
2018-09-12T22:42:03.654Z,20.40
2018-09-12T22:44:31.006Z,20.30
2018-09-12T22:46:59.722Z,19.90
2018-09-12T22:49:29.060Z,19.90
2018-09-12T22:51:56.832Z,20.20
2018-09-12T22:54:25.013Z,20.10
2018-09-12T22:56:51.775Z,20.10
2018-09-12T22:59:19.312Z,20.20
2018-09-12T23:01:45.998Z,20.10
2018-09-12T23:04:12.778Z,20.20
2018-09-12T23:06:39.442Z,20.10
2018-09-12T23:09:06.245Z,19.90
2018-09-12T23:11:32.821Z,19.90
2018-09-12T23:13:59.858Z,19.90
2018-09-12T23:16:28.091Z,19.80
2018-09-12T23:18:54.771Z,19.30
2018-09-12T23:21:21.826Z,19.50
2018-09-12T23:23:48.399Z,19.70
2018-09-12T23:26:15.708Z,19.90
2018-09-12T23:31:14.806Z,19.90
2018-09-12T23:33:41.482Z,19.50
2018-09-12T23:36:09.077Z,19.70
2018-09-12T23:38:37.102Z,19.80
2018-09-12T23:41:03.968Z,19.60
2018-09-12T23:43:30.711Z,19.70
2018-09-12T23:45:58.156Z,19.40
2018-09-12T23:48:24.690Z,19.50
2018-09-12T23:50:51.549Z,19.80
2018-09-12T23:55:52.863Z,19.80
2018-09-12T23:58:19.698Z,19.80
